sensor_id;sensor_type;location;lat;lon;timestamp;P1;durP1;ratioP1;P2;durP2;ratioP2
8594;SDS011;4335;48.860;9.198;2023-08-12T00:01:16;9.33;;;6.17;;
8594;SDS011;4335;48.860;9.198;2023-08-12T00:03:49;7.23;;;6.53;;
8594;SDS011;4335;48.860;9.198;2023-08-12T00:06:18;6.70;;;6.10;;
8594;SDS011;4335;48.860;9.198;2023-08-12T00:08:49;6.23;;;5.63;;
8594;SDS011;4335;48.860;9.198;2023-08-12T00:11:17;7.80;;;6.37;;
8594;SDS011;4335;48.860;9.198;2023-08-12T00:13:50;6.97;;;6.07;;
8594;SDS011;4335;48.860;9.198;2023-08-12T00:16:18;7.80;;;5.87;;
8594;SDS011;4335;48.860;9.198;2023-08-12T00:18:51;7.80;;;6.03;;
8594;SDS011;4335;48.860;9.198;2023-08-12T00:21:18;6.67;;;5.97;;
8594;SDS011;4335;48.860;9.198;2023-08-12T00:23:46;7.27;;;5.93;;
8594;SDS011;4335;48.860;9.198;2023-08-12T00:26:15;7.20;;;6.23;;
8594;SDS011;4335;48.860;9.198;2023-08-12T00:28:52;10.80;;;5.90;;
8594;SDS011;4335;48.860;9.198;2023-08-12T00:31:19;8.00;;;6.03;;
8594;SDS011;4335;48.860;9.198;2023-08-12T00:33:50;7.50;;;5.80;;
8594;SDS011;4335;48.860;9.198;2023-08-12T00:36:17;7.33;;;5.90;;
8594;SDS011;4335;48.860;9.198;2023-08-12T00:38:44;6.43;;;5.83;;
8594;SDS011;4335;48.860;9.198;2023-08-12T00:41:14;6.73;;;5.57;;
8594;SDS011;4335;48.860;9.198;2023-08-12T00:43:42;9.07;;;6.40;;
8594;SDS011;4335;48.860;9.198;2023-08-12T00:46:14;6.53;;;5.93;;
8594;SDS011;4335;48.860;9.198;2023-08-12T00:48:41;7.23;;;6.53;;
8594;SDS011;4335;48.860;9.198;2023-08-12T00:51:08;6.70;;;6.00;;
8594;SDS011;4335;48.860;9.198;2023-08-12T00:53:36;7.87;;;6.37;;
8594;SDS011;4335;48.860;9.198;2023-08-12T00:56:03;6.43;;;5.47;;
8594;SDS011;4335;48.860;9.198;2023-08-12T00:58:31;9.17;;;5.90;;
8594;SDS011;4335;48.860;9.198;2023-08-12T01:00:58;6.20;;;5.67;;
8594;SDS011;4335;48.860;9.198;2023-08-12T01:03:27;6.80;;;6.10;;
8594;SDS011;4335;48.860;9.198;2023-08-12T01:05:54;7.43;;;5.23;;
8594;SDS011;4335;48.860;9.198;2023-08-12T01:08:22;6.53;;;5.90;;
8594;SDS011;4335;48.860;9.198;2023-08-12T01:10:58;8.60;;;5.87;;
8594;SDS011;4335;48.860;9.198;2023-08-12T01:13:36;6.97;;;5.47;;
8594;SDS011;4335;48.860;9.198;2023-08-12T01:16:13;6.00;;;5.40;;
8594;SDS011;4335;48.860;9.198;2023-08-12T01:18:45;7.23;;;5.57;;
8594;SDS011;4335;48.860;9.198;2023-08-12T01:21:17;6.47;;;5.77;;
8594;SDS011;4335;48.860;9.198;2023-08-12T01:23:48;5.27;;;4.73;;
8594;SDS011;4335;48.860;9.198;2023-08-12T01:26:18;6.70;;;5.73;;
8594;SDS011;4335;48.860;9.198;2023-08-12T01:28:49;7.53;;;5.90;;
8594;SDS011;4335;48.860;9.198;2023-08-12T01:31:18;7.27;;;5.47;;
8594;SDS011;4335;48.860;9.198;2023-08-12T01:34:05;6.97;;;6.27;;
8594;SDS011;4335;48.860;9.198;2023-08-12T01:36:41;6.87;;;5.97;;
8594;SDS011;4335;48.860;9.198;2023-08-12T01:39:17;6.73;;;5.73;;
8594;SDS011;4335;48.860;9.198;2023-08-12T01:41:51;6.10;;;5.10;;
8594;SDS011;4335;48.860;9.198;2023-08-12T01:44:20;7.60;;;6.20;;
8594;SDS011;4335;48.860;9.198;2023-08-12T01:46:51;7.43;;;5.93;;
8594;SDS011;4335;48.860;9.198;2023-08-12T01:49:18;8.30;;;6.00;;
8594;SDS011;4335;48.860;9.198;2023-08-12T01:51:48;6.20;;;5.47;;
8594;SDS011;4335;48.860;9.198;2023-08-12T01:54:17;7.00;;;6.30;;
8594;SDS011;4335;48.860;9.198;2023-08-12T01:56:48;6.50;;;5.83;;
8594;SDS011;4335;48.860;9.198;2023-08-12T01:59:18;7.80;;;5.50;;
8594;SDS011;4335;48.860;9.198;2023-08-12T02:01:45;8.27;;;6.20;;
8594;SDS011;4335;48.860;9.198;2023-08-12T02:04:16;10.10;;;5.53;;
8594;SDS011;4335;48.860;9.198;2023-08-12T02:06:43;9.20;;;6.27;;
8594;SDS011;4335;48.860;9.198;2023-08-12T02:09:13;7.33;;;6.27;;
8594;SDS011;4335;48.860;9.198;2023-08-12T02:11:45;6.80;;;5.93;;
8594;SDS011;4335;48.860;9.198;2023-08-12T02:14:19;8.73;;;6.97;;
8594;SDS011;4335;48.860;9.198;2023-08-12T02:16:46;6.70;;;6.00;;
8594;SDS011;4335;48.860;9.198;2023-08-12T02:19:16;9.37;;;6.77;;
8594;SDS011;4335;48.860;9.198;2023-08-12T02:21:44;9.50;;;6.37;;
8594;SDS011;4335;48.860;9.198;2023-08-12T02:24:11;8.40;;;5.93;;
8594;SDS011;4335;48.860;9.198;2023-08-12T02:26:42;6.90;;;6.10;;
8594;SDS011;4335;48.860;9.198;2023-08-12T02:29:10;8.17;;;5.73;;
8594;SDS011;4335;48.860;9.198;2023-08-12T02:31:40;6.13;;;5.53;;
8594;SDS011;4335;48.860;9.198;2023-08-12T02:34:07;7.23;;;6.53;;
8594;SDS011;4335;48.860;9.198;2023-08-12T02:36:35;6.77;;;6.10;;
8594;SDS011;4335;48.860;9.198;2023-08-12T02:39:02;6.97;;;5.77;;
8594;SDS011;4335;48.860;9.198;2023-08-12T02:41:30;9.30;;;6.30;;
8594;SDS011;4335;48.860;9.198;2023-08-12T02:44:01;6.83;;;6.13;;
8594;SDS011;4335;48.860;9.198;2023-08-12T02:46:38;9.33;;;6.20;;
8594;SDS011;4335;48.860;9.198;2023-08-12T02:49:05;7.33;;;6.03;;
8594;SDS011;4335;48.860;9.198;2023-08-12T02:51:36;7.33;;;5.83;;
8594;SDS011;4335;48.860;9.198;2023-08-12T02:54:03;9.80;;;6.07;;
8594;SDS011;4335;48.860;9.198;2023-08-12T02:56:34;21.47;;;6.87;;
8594;SDS011;4335;48.860;9.198;2023-08-12T02:59:02;8.57;;;7.10;;
8594;SDS011;4335;48.860;9.198;2023-08-12T03:01:33;6.60;;;5.50;;
8594;SDS011;4335;48.860;9.198;2023-08-12T03:04:04;6.67;;;5.97;;
8594;SDS011;4335;48.860;9.198;2023-08-12T03:06:32;7.23;;;6.03;;
8594;SDS011;4335;48.860;9.198;2023-08-12T03:09:11;7.30;;;5.83;;
8594;SDS011;4335;48.860;9.198;2023-08-12T03:11:38;6.87;;;5.83;;
8594;SDS011;4335;48.860;9.198;2023-08-12T03:14:07;6.20;;;5.30;;
8594;SDS011;4335;48.860;9.198;2023-08-12T03:16:35;8.87;;;5.97;;
8594;SDS011;4335;48.860;9.198;2023-08-12T03:19:03;8.57;;;6.73;;
8594;SDS011;4335;48.860;9.198;2023-08-12T03:21:33;7.03;;;5.60;;
8594;SDS011;4335;48.860;9.198;2023-08-12T03:24:07;7.57;;;6.00;;
8594;SDS011;4335;48.860;9.198;2023-08-12T03:26:37;6.83;;;6.20;;
8594;SDS011;4335;48.860;9.198;2023-08-12T03:29:04;6.03;;;5.43;;
8594;SDS011;4335;48.860;9.198;2023-08-12T03:31:33;7.50;;;6.47;;
8594;SDS011;4335;48.860;9.198;2023-08-12T03:34:06;9.43;;;6.17;;
8594;SDS011;4335;48.860;9.198;2023-08-12T03:36:40;10.20;;;7.53;;
8594;SDS011;4335;48.860;9.198;2023-08-12T03:39:14;6.90;;;6.30;;
8594;SDS011;4335;48.860;9.198;2023-08-12T03:41:41;7.07;;;5.57;;
8594;SDS011;4335;48.860;9.198;2023-08-12T03:44:13;6.70;;;5.57;;
8594;SDS011;4335;48.860;9.198;2023-08-12T03:46:40;6.93;;;5.50;;
8594;SDS011;4335;48.860;9.198;2023-08-12T03:49:10;6.63;;;5.80;;
8594;SDS011;4335;48.860;9.198;2023-08-12T03:51:47;7.63;;;5.60;;
8594;SDS011;4335;48.860;9.198;2023-08-12T03:54:17;8.67;;;5.70;;
8594;SDS011;4335;48.860;9.198;2023-08-12T03:56:45;5.90;;;5.30;;
8594;SDS011;4335;48.860;9.198;2023-08-12T03:59:22;6.90;;;5.30;;
8594;SDS011;4335;48.860;9.198;2023-08-12T04:01:49;7.33;;;5.97;;
8594;SDS011;4335;48.860;9.198;2023-08-12T04:04:17;7.57;;;5.60;;
8594;SDS011;4335;48.860;9.198;2023-08-12T04:06:44;6.30;;;5.70;;
8594;SDS011;4335;48.860;9.198;2023-08-12T04:09:13;9.93;;;6.00;;
8594;SDS011;4335;48.860;9.198;2023-08-12T04:11:40;7.80;;;5.53;;
8594;SDS011;4335;48.860;9.198;2023-08-12T04:14:13;7.87;;;6.00;;
8594;SDS011;4335;48.860;9.198;2023-08-12T04:16:42;7.93;;;5.87;;
8594;SDS011;4335;48.860;9.198;2023-08-12T04:19:10;6.53;;;5.67;;
8594;SDS011;4335;48.860;9.198;2023-08-12T04:21:43;7.40;;;5.43;;
8594;SDS011;4335;48.860;9.198;2023-08-12T04:24:13;8.13;;;5.90;;
8594;SDS011;4335;48.860;9.198;2023-08-12T04:26:41;7.43;;;5.80;;
8594;SDS011;4335;48.860;9.198;2023-08-12T04:29:11;8.37;;;6.17;;
8594;SDS011;4335;48.860;9.198;2023-08-12T04:31:43;7.30;;;6.07;;
8594;SDS011;4335;48.860;9.198;2023-08-12T04:34:10;8.63;;;5.57;;
8594;SDS011;4335;48.860;9.198;2023-08-12T04:36:41;9.03;;;5.23;;
8594;SDS011;4335;48.860;9.198;2023-08-12T04:39:14;7.93;;;5.60;;
8594;SDS011;4335;48.860;9.198;2023-08-12T04:41:41;6.40;;;5.53;;
8594;SDS011;4335;48.860;9.198;2023-08-12T04:44:09;7.27;;;5.07;;
8594;SDS011;4335;48.860;9.198;2023-08-12T04:46:44;6.03;;;5.53;;
8594;SDS011;4335;48.860;9.198;2023-08-12T04:49:15;5.90;;;5.40;;
8594;SDS011;4335;48.860;9.198;2023-08-12T04:51:51;6.40;;;5.80;;
8594;SDS011;4335;48.860;9.198;2023-08-12T04:54:19;6.17;;;5.57;;
8594;SDS011;4335;48.860;9.198;2023-08-12T04:56:46;7.40;;;5.60;;
8594;SDS011;4335;48.860;9.198;2023-08-12T04:59:21;6.80;;;6.20;;
8594;SDS011;4335;48.860;9.198;2023-08-12T05:01:58;6.93;;;6.33;;
8594;SDS011;4335;48.860;9.198;2023-08-12T05:04:25;6.03;;;5.47;;
8594;SDS011;4335;48.860;9.198;2023-08-12T05:06:52;8.67;;;6.03;;
8594;SDS011;4335;48.860;9.198;2023-08-12T05:09:25;6.03;;;5.43;;
8594;SDS011;4335;48.860;9.198;2023-08-12T05:11:53;7.67;;;5.30;;
8594;SDS011;4335;48.860;9.198;2023-08-12T05:14:20;6.83;;;5.73;;
8594;SDS011;4335;48.860;9.198;2023-08-12T05:16:55;6.90;;;5.23;;
8594;SDS011;4335;48.860;9.198;2023-08-12T05:19:25;7.07;;;5.03;;
8594;SDS011;4335;48.860;9.198;2023-08-12T05:21:55;7.63;;;5.60;;
8594;SDS011;4335;48.860;9.198;2023-08-12T05:24:22;6.20;;;5.57;;
8594;SDS011;4335;48.860;9.198;2023-08-12T05:26:50;6.37;;;5.57;;
8594;SDS011;4335;48.860;9.198;2023-08-12T05:29:22;8.73;;;5.73;;
8594;SDS011;4335;48.860;9.198;2023-08-12T05:31:52;5.80;;;5.20;;
8594;SDS011;4335;48.860;9.198;2023-08-12T05:34:21;6.00;;;5.50;;
8594;SDS011;4335;48.860;9.198;2023-08-12T05:36:49;6.70;;;5.60;;
8594;SDS011;4335;48.860;9.198;2023-08-12T05:39:22;8.07;;;5.83;;
8594;SDS011;4335;48.860;9.198;2023-08-12T05:41:58;6.57;;;5.77;;
8594;SDS011;4335;48.860;9.198;2023-08-12T05:44:26;7.07;;;5.63;;
8594;SDS011;4335;48.860;9.198;2023-08-12T05:46:53;6.07;;;5.47;;
8594;SDS011;4335;48.860;9.198;2023-08-12T05:49:25;6.90;;;5.60;;
8594;SDS011;4335;48.860;9.198;2023-08-12T05:51:52;10.63;;;5.60;;
8594;SDS011;4335;48.860;9.198;2023-08-12T05:54:22;6.53;;;5.70;;
8594;SDS011;4335;48.860;9.198;2023-08-12T05:56:49;7.27;;;5.97;;
8594;SDS011;4335;48.860;9.198;2023-08-12T05:59:20;9.67;;;6.37;;
8594;SDS011;4335;48.860;9.198;2023-08-12T06:01:53;5.13;;;4.63;;
8594;SDS011;4335;48.860;9.198;2023-08-12T06:04:21;5.87;;;5.30;;
8594;SDS011;4335;48.860;9.198;2023-08-12T06:06:52;6.00;;;5.40;;
8594;SDS011;4335;48.860;9.198;2023-08-12T06:09:26;6.37;;;5.47;;
8594;SDS011;4335;48.860;9.198;2023-08-12T06:11:56;6.93;;;5.13;;
8594;SDS011;4335;48.860;9.198;2023-08-12T06:14:24;6.37;;;5.77;;
8594;SDS011;4335;48.860;9.198;2023-08-12T06:16:51;6.10;;;5.50;;
8594;SDS011;4335;48.860;9.198;2023-08-12T06:19:18;7.10;;;5.70;;
8594;SDS011;4335;48.860;9.198;2023-08-12T06:21:49;6.13;;;5.53;;
8594;SDS011;4335;48.860;9.198;2023-08-12T06:24:30;6.20;;;5.50;;
8594;SDS011;4335;48.860;9.198;2023-08-12T06:26:57;6.67;;;5.73;;
8594;SDS011;4335;48.860;9.198;2023-08-12T06:29:25;6.13;;;5.53;;
8594;SDS011;4335;48.860;9.198;2023-08-12T06:31:52;8.80;;;6.33;;
8594;SDS011;4335;48.860;9.198;2023-08-12T06:34:21;6.93;;;5.53;;
8594;SDS011;4335;48.860;9.198;2023-08-12T06:36:48;7.20;;;5.70;;
8594;SDS011;4335;48.860;9.198;2023-08-12T06:39:16;6.37;;;5.60;;
8594;SDS011;4335;48.860;9.198;2023-08-12T06:41:44;6.67;;;5.50;;
8594;SDS011;4335;48.860;9.198;2023-08-12T06:44:12;5.97;;;5.37;;
8594;SDS011;4335;48.860;9.198;2023-08-12T06:46:45;6.17;;;5.53;;
8594;SDS011;4335;48.860;9.198;2023-08-12T06:49:12;7.70;;;6.90;;
8594;SDS011;4335;48.860;9.198;2023-08-12T06:51:40;6.77;;;5.17;;
8594;SDS011;4335;48.860;9.198;2023-08-12T06:54:07;7.67;;;5.40;;
8594;SDS011;4335;48.860;9.198;2023-08-12T06:56:34;6.27;;;5.13;;
8594;SDS011;4335;48.860;9.198;2023-08-12T06:59:09;6.10;;;5.50;;
8594;SDS011;4335;48.860;9.198;2023-08-12T07:01:36;6.70;;;5.80;;
8594;SDS011;4335;48.860;9.198;2023-08-12T07:04:06;6.70;;;5.57;;
8594;SDS011;4335;48.860;9.198;2023-08-12T07:06:34;5.83;;;5.13;;
8594;SDS011;4335;48.860;9.198;2023-08-12T07:09:01;6.57;;;5.53;;
8594;SDS011;4335;48.860;9.198;2023-08-12T07:11:29;6.00;;;5.17;;
8594;SDS011;4335;48.860;9.198;2023-08-12T07:13:57;6.63;;;5.17;;
8594;SDS011;4335;48.860;9.198;2023-08-12T07:16:25;6.30;;;5.70;;
8594;SDS011;4335;48.860;9.198;2023-08-12T07:18:56;7.03;;;5.23;;
8594;SDS011;4335;48.860;9.198;2023-08-12T07:21:42;7.00;;;5.18;;
8594;SDS011;4335;48.860;9.198;2023-08-12T07:24:15;5.32;;;4.82;;
8594;SDS011;4335;48.860;9.198;2023-08-12T07:26:44;5.60;;;4.53;;
8594;SDS011;4335;48.860;9.198;2023-08-12T07:29:11;4.90;;;4.20;;
8594;SDS011;4335;48.860;9.198;2023-08-12T07:31:40;10.57;;;4.63;;
8594;SDS011;4335;48.860;9.198;2023-08-12T07:34:07;5.20;;;4.68;;
8594;SDS011;4335;48.860;9.198;2023-08-12T07:36:38;4.38;;;3.95;;
8594;SDS011;4335;48.860;9.198;2023-08-12T07:39:09;6.80;;;4.60;;
8594;SDS011;4335;48.860;9.198;2023-08-12T07:41:36;4.68;;;4.07;;
8594;SDS011;4335;48.860;9.198;2023-08-12T07:44:06;4.68;;;4.20;;
8594;SDS011;4335;48.860;9.198;2023-08-12T07:46:33;5.05;;;3.72;;
8594;SDS011;4335;48.860;9.198;2023-08-12T07:49:02;5.88;;;3.83;;
8594;SDS011;4335;48.860;9.198;2023-08-12T07:51:30;4.63;;;3.75;;
8594;SDS011;4335;48.860;9.198;2023-08-12T07:53:57;6.88;;;4.22;;
8594;SDS011;4335;48.860;9.198;2023-08-12T07:56:31;5.60;;;3.95;;
8594;SDS011;4335;48.860;9.198;2023-08-12T07:59:01;4.40;;;4.00;;
8594;SDS011;4335;48.860;9.198;2023-08-12T08:01:32;5.22;;;3.90;;
8594;SDS011;4335;48.860;9.198;2023-08-12T08:04:04;4.70;;;3.88;;
8594;SDS011;4335;48.860;9.198;2023-08-12T08:06:35;4.78;;;4.38;;
8594;SDS011;4335;48.860;9.198;2023-08-12T08:09:02;5.25;;;3.97;;
8594;SDS011;4335;48.860;9.198;2023-08-12T08:11:30;3.78;;;3.22;;
8594;SDS011;4335;48.860;9.198;2023-08-12T08:13:59;4.20;;;3.90;;
8594;SDS011;4335;48.860;9.198;2023-08-12T08:16:26;5.20;;;3.70;;
8594;SDS011;4335;48.860;9.198;2023-08-12T08:18:54;3.58;;;3.20;;
8594;SDS011;4335;48.860;9.198;2023-08-12T08:21:35;6.07;;;4.75;;
8594;SDS011;4335;48.860;9.198;2023-08-12T08:24:02;4.43;;;4.03;;
8594;SDS011;4335;48.860;9.198;2023-08-12T08:26:30;4.45;;;4.05;;
8594;SDS011;4335;48.860;9.198;2023-08-12T08:29:00;7.97;;;3.70;;
8594;SDS011;4335;48.860;9.198;2023-08-12T08:31:28;6.55;;;3.90;;
8594;SDS011;4335;48.860;9.198;2023-08-12T08:33:55;4.47;;;3.72;;
8594;SDS011;4335;48.860;9.198;2023-08-12T08:36:26;6.82;;;3.55;;
8594;SDS011;4335;48.860;9.198;2023-08-12T08:39:01;4.43;;;4.03;;
8594;SDS011;4335;48.860;9.198;2023-08-12T08:41:29;6.15;;;3.80;;
8594;SDS011;4335;48.860;9.198;2023-08-12T08:44:00;4.10;;;3.80;;
8594;SDS011;4335;48.860;9.198;2023-08-12T08:46:34;3.55;;;3.05;;
8594;SDS011;4335;48.860;9.198;2023-08-12T08:49:02;3.90;;;3.50;;
8594;SDS011;4335;48.860;9.198;2023-08-12T08:51:31;4.93;;;3.70;;
8594;SDS011;4335;48.860;9.198;2023-08-12T08:54:02;3.92;;;3.55;;
8594;SDS011;4335;48.860;9.198;2023-08-12T08:56:33;4.13;;;3.72;;
8594;SDS011;4335;48.860;9.198;2023-08-12T08:59:04;4.15;;;3.75;;
8594;SDS011;4335;48.860;9.198;2023-08-12T09:01:34;4.07;;;3.67;;
8594;SDS011;4335;48.860;9.198;2023-08-12T09:04:05;6.63;;;3.90;;
8594;SDS011;4335;48.860;9.198;2023-08-12T09:06:33;3.80;;;3.45;;
8594;SDS011;4335;48.860;9.198;2023-08-12T09:09:06;4.07;;;3.70;;
8594;SDS011;4335;48.860;9.198;2023-08-12T09:11:38;5.80;;;3.28;;
8594;SDS011;4335;48.860;9.198;2023-08-12T09:14:08;4.53;;;3.78;;
8594;SDS011;4335;48.860;9.198;2023-08-12T09:16:36;6.25;;;3.35;;
8594;SDS011;4335;48.860;9.198;2023-08-12T09:19:04;6.32;;;3.72;;
8594;SDS011;4335;48.860;9.198;2023-08-12T09:21:31;4.03;;;3.50;;
8594;SDS011;4335;48.860;9.198;2023-08-12T09:24:09;4.43;;;4.03;;
8594;SDS011;4335;48.860;9.198;2023-08-12T09:26:39;4.20;;;3.90;;
8594;SDS011;4335;48.860;9.198;2023-08-12T09:29:09;4.32;;;3.92;;
8594;SDS011;4335;48.860;9.198;2023-08-12T09:31:40;4.28;;;3.88;;
8594;SDS011;4335;48.860;9.198;2023-08-12T09:34:07;3.60;;;3.30;;
8594;SDS011;4335;48.860;9.198;2023-08-12T09:36:35;4.28;;;3.88;;
8594;SDS011;4335;48.860;9.198;2023-08-12T09:39:05;3.60;;;3.30;;
8594;SDS011;4335;48.860;9.198;2023-08-12T09:41:35;3.55;;;3.33;;
8594;SDS011;4335;48.860;9.198;2023-08-12T09:44:07;4.22;;;3.60;;
8594;SDS011;4335;48.860;9.198;2023-08-12T09:46:35;3.92;;;3.58;;
8594;SDS011;4335;48.860;9.198;2023-08-12T09:49:06;5.82;;;3.55;;
8594;SDS011;4335;48.860;9.198;2023-08-12T09:51:37;3.40;;;3.10;;
8594;SDS011;4335;48.860;9.198;2023-08-12T09:54:06;3.55;;;3.25;;
8594;SDS011;4335;48.860;9.198;2023-08-12T09:56:37;4.13;;;3.70;;
8594;SDS011;4335;48.860;9.198;2023-08-12T09:59:06;3.38;;;3.00;;
8594;SDS011;4335;48.860;9.198;2023-08-12T10:01:35;4.07;;;3.78;;
8594;SDS011;4335;48.860;9.198;2023-08-12T10:04:09;3.53;;;3.22;;
8594;SDS011;4335;48.860;9.198;2023-08-12T10:06:45;4.07;;;3.47;;
8594;SDS011;4335;48.860;9.198;2023-08-12T10:09:16;3.90;;;3.60;;
8594;SDS011;4335;48.860;9.198;2023-08-12T10:11:45;3.58;;;3.28;;
8594;SDS011;4335;48.860;9.198;2023-08-12T10:14:16;4.18;;;3.78;;
8594;SDS011;4335;48.860;9.198;2023-08-12T10:16:45;5.78;;;4.18;;
8594;SDS011;4335;48.860;9.198;2023-08-12T10:19:16;4.20;;;3.80;;
8594;SDS011;4335;48.860;9.198;2023-08-12T10:21:44;4.50;;;3.80;;
8594;SDS011;4335;48.860;9.198;2023-08-12T10:24:16;4.93;;;4.15;;
8594;SDS011;4335;48.860;9.198;2023-08-12T10:26:45;4.32;;;3.92;;
8594;SDS011;4335;48.860;9.198;2023-08-12T10:29:17;4.50;;;4.10;;
8594;SDS011;4335;48.860;9.198;2023-08-12T10:31:47;4.70;;;3.78;;
8594;SDS011;4335;48.860;9.198;2023-08-12T10:34:18;4.53;;;3.78;;
8594;SDS011;4335;48.860;9.198;2023-08-12T10:36:47;4.43;;;4.03;;
8594;SDS011;4335;48.860;9.198;2023-08-12T10:39:24;4.88;;;4.00;;
8594;SDS011;4335;48.860;9.198;2023-08-12T10:41:55;5.47;;;3.70;;
8594;SDS011;4335;48.860;9.198;2023-08-12T10:44:26;4.15;;;3.75;;
8594;SDS011;4335;48.860;9.198;2023-08-12T10:46:54;5.72;;;3.97;;
8594;SDS011;4335;48.860;9.198;2023-08-12T10:49:21;5.13;;;4.10;;
8594;SDS011;4335;48.860;9.198;2023-08-12T10:51:49;5.75;;;3.47;;
8594;SDS011;4335;48.860;9.198;2023-08-12T10:54:20;4.50;;;3.97;;
8594;SDS011;4335;48.860;9.198;2023-08-12T10:57:05;4.72;;;4.30;;
8594;SDS011;4335;48.860;9.198;2023-08-12T10:59:48;4.18;;;3.78;;
8594;SDS011;4335;48.860;9.198;2023-08-12T11:02:18;4.13;;;3.58;;
8594;SDS011;4335;48.860;9.198;2023-08-12T11:04:50;3.65;;;3.33;;
8594;SDS011;4335;48.860;9.198;2023-08-12T11:07:20;4.63;;;4.22;;
8594;SDS011;4335;48.860;9.198;2023-08-12T11:09:50;5.80;;;4.20;;
8594;SDS011;4335;48.860;9.198;2023-08-12T11:12:28;4.47;;;4.07;;
8594;SDS011;4335;48.860;9.198;2023-08-12T11:15:00;4.32;;;3.92;;
8594;SDS011;4335;48.860;9.198;2023-08-12T11:17:30;6.22;;;4.07;;
8594;SDS011;4335;48.860;9.198;2023-08-12T11:20:00;3.47;;;3.17;;
8594;SDS011;4335;48.860;9.198;2023-08-12T11:22:29;3.92;;;3.53;;
8594;SDS011;4335;48.860;9.198;2023-08-12T11:24:57;3.33;;;3.03;;
8594;SDS011;4335;48.860;9.198;2023-08-12T11:27:25;3.30;;;3.00;;
8594;SDS011;4335;48.860;9.198;2023-08-12T11:29:53;4.10;;;3.70;;
8594;SDS011;4335;48.860;9.198;2023-08-12T11:32:20;3.85;;;3.42;;
8594;SDS011;4335;48.860;9.198;2023-08-12T11:34:47;5.40;;;3.35;;
8594;SDS011;4335;48.860;9.198;2023-08-12T11:37:15;4.40;;;3.28;;
8594;SDS011;4335;48.860;9.198;2023-08-12T11:39:43;4.22;;;3.22;;
8594;SDS011;4335;48.860;9.198;2023-08-12T11:42:13;4.60;;;3.42;;
8594;SDS011;4335;48.860;9.198;2023-08-12T11:44:41;4.68;;;3.63;;
8594;SDS011;4335;48.860;9.198;2023-08-12T11:47:13;3.28;;;2.97;;
8594;SDS011;4335;48.860;9.198;2023-08-12T11:49:40;5.03;;;3.05;;
8594;SDS011;4335;48.860;9.198;2023-08-12T11:52:08;4.05;;;3.10;;
8594;SDS011;4335;48.860;9.198;2023-08-12T11:54:36;3.67;;;3.25;;
8594;SDS011;4335;48.860;9.198;2023-08-12T11:57:04;3.30;;;3.00;;
8594;SDS011;4335;48.860;9.198;2023-08-12T11:59:34;3.58;;;2.30;;
8594;SDS011;4335;48.860;9.198;2023-08-12T12:02:06;4.55;;;2.22;;
8594;SDS011;4335;48.860;9.198;2023-08-12T12:04:35;5.00;;;1.58;;
8594;SDS011;4335;48.860;9.198;2023-08-12T12:07:03;2.15;;;1.48;;
8594;SDS011;4335;48.860;9.198;2023-08-12T12:09:46;2.67;;;1.65;;
8594;SDS011;4335;48.860;9.198;2023-08-12T12:12:16;4.37;;;2.00;;
8594;SDS011;4335;48.860;9.198;2023-08-12T12:14:49;3.87;;;2.00;;
8594;SDS011;4335;48.860;9.198;2023-08-12T12:17:18;6.67;;;2.67;;
8594;SDS011;4335;48.860;9.198;2023-08-12T12:19:51;6.47;;;2.43;;
8594;SDS011;4335;48.860;9.198;2023-08-12T12:22:25;4.23;;;2.80;;
8594;SDS011;4335;48.860;9.198;2023-08-12T12:24:54;4.33;;;2.90;;
8594;SDS011;4335;48.860;9.198;2023-08-12T12:27:24;6.70;;;4.53;;
8594;SDS011;4335;48.860;9.198;2023-08-12T12:29:51;3.60;;;2.53;;
8594;SDS011;4335;48.860;9.198;2023-08-12T12:32:19;4.67;;;3.13;;
8594;SDS011;4335;48.860;9.198;2023-08-12T12:34:52;5.10;;;3.13;;
8594;SDS011;4335;48.860;9.198;2023-08-12T12:37:23;4.80;;;3.13;;
8594;SDS011;4335;48.860;9.198;2023-08-12T12:39:50;6.70;;;4.57;;
8594;SDS011;4335;48.860;9.198;2023-08-12T12:42:20;5.13;;;4.37;;
8594;SDS011;4335;48.860;9.198;2023-08-12T12:44:47;4.83;;;3.00;;
8594;SDS011;4335;48.860;9.198;2023-08-12T12:47:17;5.70;;;3.30;;
8594;SDS011;4335;48.860;9.198;2023-08-12T12:49:45;4.03;;;3.63;;
8594;SDS011;4335;48.860;9.198;2023-08-12T12:52:14;6.17;;;3.00;;
8594;SDS011;4335;48.860;9.198;2023-08-12T12:54:41;5.50;;;3.73;;
8594;SDS011;4335;48.860;9.198;2023-08-12T12:57:09;4.80;;;3.53;;
8594;SDS011;4335;48.860;9.198;2023-08-12T12:59:36;4.73;;;4.10;;
8594;SDS011;4335;48.860;9.198;2023-08-12T13:02:04;6.10;;;4.00;;
8594;SDS011;4335;48.860;9.198;2023-08-12T13:04:32;5.83;;;3.97;;
8594;SDS011;4335;48.860;9.198;2023-08-12T13:06:59;5.03;;;4.07;;
8594;SDS011;4335;48.860;9.198;2023-08-12T13:09:28;7.40;;;4.90;;
8594;SDS011;4335;48.860;9.198;2023-08-12T13:11:56;4.77;;;3.97;;
8594;SDS011;4335;48.860;9.198;2023-08-12T13:14:29;5.17;;;4.00;;
8594;SDS011;4335;48.860;9.198;2023-08-12T13:16:56;4.30;;;3.40;;
8594;SDS011;4335;48.860;9.198;2023-08-12T13:19:27;5.00;;;4.43;;
8594;SDS011;4335;48.860;9.198;2023-08-12T13:21:54;5.07;;;3.43;;
8594;SDS011;4335;48.860;9.198;2023-08-12T13:24:28;5.97;;;3.57;;
8594;SDS011;4335;48.860;9.198;2023-08-12T13:26:56;7.87;;;3.83;;
8594;SDS011;4335;48.860;9.198;2023-08-12T13:29:23;3.77;;;3.40;;
8594;SDS011;4335;48.860;9.198;2023-08-12T13:31:51;4.97;;;3.40;;
8594;SDS011;4335;48.860;9.198;2023-08-12T13:34:19;6.17;;;4.10;;
8594;SDS011;4335;48.860;9.198;2023-08-12T13:36:46;4.20;;;3.60;;
8594;SDS011;4335;48.860;9.198;2023-08-12T13:39:16;5.40;;;3.57;;
8594;SDS011;4335;48.860;9.198;2023-08-12T13:42:04;3.93;;;3.50;;
8594;SDS011;4335;48.860;9.198;2023-08-12T13:44:34;3.83;;;3.47;;
8594;SDS011;4335;48.860;9.198;2023-08-12T13:47:01;4.03;;;3.60;;
8594;SDS011;4335;48.860;9.198;2023-08-12T13:49:29;4.80;;;3.57;;
8594;SDS011;4335;48.860;9.198;2023-08-12T13:51:56;4.50;;;3.30;;
8594;SDS011;4335;48.860;9.198;2023-08-12T13:54:24;4.80;;;3.50;;
8594;SDS011;4335;48.860;9.198;2023-08-12T13:56:58;4.77;;;3.37;;
8594;SDS011;4335;48.860;9.198;2023-08-12T13:59:26;3.97;;;3.57;;
8594;SDS011;4335;48.860;9.198;2023-08-12T14:01:56;3.43;;;2.97;;
8594;SDS011;4335;48.860;9.198;2023-08-12T14:04:24;5.10;;;3.27;;
8594;SDS011;4335;48.860;9.198;2023-08-12T14:07:00;3.10;;;2.80;;
8594;SDS011;4335;48.860;9.198;2023-08-12T14:09:30;3.20;;;2.90;;
8594;SDS011;4335;48.860;9.198;2023-08-12T14:11:59;3.40;;;3.00;;
8594;SDS011;4335;48.860;9.198;2023-08-12T14:14:27;3.23;;;2.90;;
8594;SDS011;4335;48.860;9.198;2023-08-12T14:17:01;3.38;;;3.08;;
8594;SDS011;4335;48.860;9.198;2023-08-12T14:19:31;5.22;;;3.40;;
8594;SDS011;4335;48.860;9.198;2023-08-12T14:21:59;5.13;;;3.60;;
8594;SDS011;4335;48.860;9.198;2023-08-12T14:24:29;4.33;;;3.60;;
8594;SDS011;4335;48.860;9.198;2023-08-12T14:27:14;6.17;;;3.97;;
8594;SDS011;4335;48.860;9.198;2023-08-12T14:29:43;4.28;;;3.58;;
8594;SDS011;4335;48.860;9.198;2023-08-12T14:32:12;5.77;;;4.33;;
8594;SDS011;4335;48.860;9.198;2023-08-12T14:34:45;4.47;;;4.07;;
8594;SDS011;4335;48.860;9.198;2023-08-12T14:37:12;4.93;;;3.77;;
8594;SDS011;4335;48.860;9.198;2023-08-12T14:39:39;5.33;;;4.00;;
8594;SDS011;4335;48.860;9.198;2023-08-12T14:42:11;5.90;;;4.60;;
8594;SDS011;4335;48.860;9.198;2023-08-12T14:44:41;6.00;;;4.00;;
8594;SDS011;4335;48.860;9.198;2023-08-12T14:47:09;4.65;;;4.22;;
8594;SDS011;4335;48.860;9.198;2023-08-12T14:49:36;4.90;;;3.83;;
8594;SDS011;4335;48.860;9.198;2023-08-12T14:52:04;6.10;;;3.85;;
8594;SDS011;4335;48.860;9.198;2023-08-12T14:54:31;5.93;;;4.00;;
8594;SDS011;4335;48.860;9.198;2023-08-12T14:56:59;5.33;;;3.97;;
8594;SDS011;4335;48.860;9.198;2023-08-12T14:59:27;4.80;;;4.10;;
8594;SDS011;4335;48.860;9.198;2023-08-12T15:02:01;4.00;;;3.70;;
8594;SDS011;4335;48.860;9.198;2023-08-12T15:04:28;4.10;;;3.70;;
8594;SDS011;4335;48.860;9.198;2023-08-12T15:06:55;5.78;;;4.07;;
8594;SDS011;4335;48.860;9.198;2023-08-12T15:09:23;5.03;;;3.47;;
8594;SDS011;4335;48.860;9.198;2023-08-12T15:11:56;5.50;;;3.58;;
8594;SDS011;4335;48.860;9.198;2023-08-12T15:14:34;3.78;;;3.40;;
8594;SDS011;4335;48.860;9.198;2023-08-12T15:17:02;6.80;;;3.60;;
8594;SDS011;4335;48.860;9.198;2023-08-12T15:19:29;5.20;;;4.47;;
8594;SDS011;4335;48.860;9.198;2023-08-12T15:22:09;4.13;;;3.72;;
8594;SDS011;4335;48.860;9.198;2023-08-12T15:24:36;3.90;;;3.50;;
8594;SDS011;4335;48.860;9.198;2023-08-12T15:27:10;7.10;;;3.83;;
8594;SDS011;4335;48.860;9.198;2023-08-12T15:29:38;4.38;;;3.97;;
8594;SDS011;4335;48.860;9.198;2023-08-12T15:32:06;5.93;;;4.00;;